sensor_id;sensor_type;location;lat;lon;timestamp;pressure;altitude;pressure_sealevel;temperature;humidity
54512;BME280;40419;47.438;19.026;2022-12-18T00:02:02;101194.03;;;-3.43;100.00
54512;BME280;40419;47.438;19.026;2022-12-18T00:04:33;101187.00;;;-3.44;100.00
54512;BME280;40419;47.438;19.026;2022-12-18T00:07:01;101196.22;;;-3.17;100.00
54512;BME280;40419;47.438;19.026;2022-12-18T00:09:27;101204.72;;;-3.11;100.00
54512;BME280;40419;47.438;19.026;2022-12-18T00:11:53;101208.88;;;-3.07;100.00
54512;BME280;40419;47.438;19.026;2022-12-18T00:14:21;101217.00;;;-3.10;100.00
54512;BME280;40419;47.438;19.026;2022-12-18T00:16:49;101221.63;;;-3.13;100.00
54512;BME280;40419;47.438;19.026;2022-12-18T00:19:15;101227.34;;;-3.05;100.00
54512;BME280;40419;47.438;19.026;2022-12-18T00:21:42;101227.47;;;-2.91;100.00
54512;BME280;40419;47.438;19.026;2022-12-18T00:24:08;101233.47;;;-2.87;100.00
54512;BME280;40419;47.438;19.026;2022-12-18T00:26:38;101231.44;;;-2.82;100.00
54512;BME280;40419;47.438;19.026;2022-12-18T00:29:07;101242.88;;;-2.81;100.00
54512;BME280;40419;47.438;19.026;2022-12-18T00:31:35;101241.53;;;-2.57;100.00
54512;BME280;40419;47.438;19.026;2022-12-18T00:34:04;101246.16;;;-2.60;100.00
54512;BME280;40419;47.438;19.026;2022-12-18T00:36:32;101244.47;;;-2.45;100.00
54512;BME280;40419;47.438;19.026;2022-12-18T00:39:00;101256.59;;;-2.57;100.00
54512;BME280;40419;47.438;19.026;2022-12-18T00:41:28;101256.81;;;-2.44;100.00
54512;BME280;40419;47.438;19.026;2022-12-18T00:44:16;101250.63;;;-2.61;100.00
54512;BME280;40419;47.438;19.026;2022-12-18T00:46:47;101257.78;;;-2.63;100.00
54512;BME280;40419;47.438;19.026;2022-12-18T00:49:16;101247.19;;;-2.63;100.00
54512;BME280;40419;47.438;19.026;2022-12-18T00:51:47;101253.31;;;-2.78;100.00
54512;BME280;40419;47.438;19.026;2022-12-18T00:54:15;101262.59;;;-2.70;100.00
54512;BME280;40419;47.438;19.026;2022-12-18T00:56:43;101263.03;;;-2.95;100.00
54512;BME280;40419;47.438;19.026;2022-12-18T00:59:09;101273.78;;;-2.80;100.00
54512;BME280;40419;47.438;19.026;2022-12-18T01:01:34;101275.97;;;-2.89;100.00
54512;BME280;40419;47.438;19.026;2022-12-18T01:04:02;101277.41;;;-3.34;100.00
54512;BME280;40419;47.438;19.026;2022-12-18T01:06:31;101275.94;;;-3.57;100.00
54512;BME280;40419;47.438;19.026;2022-12-18T01:08:59;101279.94;;;-3.48;100.00
54512;BME280;40419;47.438;19.026;2022-12-18T01:11:24;101282.63;;;-3.32;100.00
54512;BME280;40419;47.438;19.026;2022-12-18T01:13:54;101289.88;;;-3.36;100.00
54512;BME280;40419;47.438;19.026;2022-12-18T01:16:22;101289.78;;;-3.52;100.00
54512;BME280;40419;47.438;19.026;2022-12-18T01:18:51;101296.75;;;-3.49;100.00
54512;BME280;40419;47.438;19.026;2022-12-18T01:21:18;101297.28;;;-3.60;100.00
54512;BME280;40419;47.438;19.026;2022-12-18T01:23:44;101295.97;;;-3.51;100.00
54512;BME280;40419;47.438;19.026;2022-12-18T01:26:15;101307.03;;;-3.43;100.00
54512;BME280;40419;47.438;19.026;2022-12-18T01:28:43;101295.97;;;-3.51;100.00
54512;BME280;40419;47.438;19.026;2022-12-18T01:31:28;101306.06;;;-3.60;100.00
54512;BME280;40419;47.438;19.026;2022-12-18T01:33:57;101302.56;;;-3.60;100.00
54512;BME280;40419;47.438;19.026;2022-12-18T01:36:31;101301.22;;;-3.69;100.00
54512;BME280;40419;47.438;19.026;2022-12-18T01:39:06;101315.19;;;-3.65;100.00
54512;BME280;40419;47.438;19.026;2022-12-18T01:41:33;101310.66;;;-3.63;100.00
54512;BME280;40419;47.438;19.026;2022-12-18T01:44:56;101308.41;;;-3.53;100.00
54512;BME280;40419;47.438;19.026;2022-12-18T01:47:54;101323.84;;;-3.44;100.00
54512;BME280;40419;47.438;19.026;2022-12-18T01:55:19;101334.22;;;-3.76;100.00
54512;BME280;40419;47.438;19.026;2022-12-18T01:57:46;101333.22;;;-3.74;100.00
54512;BME280;40419;47.438;19.026;2022-12-18T02:00:20;101331.69;;;-3.60;100.00
54512;BME280;40419;47.438;19.026;2022-12-18T02:02:52;101336.50;;;-3.68;100.00
54512;BME280;40419;47.438;19.026;2022-12-18T02:05:29;101328.22;;;-3.61;100.00
54512;BME280;40419;47.438;19.026;2022-12-18T02:18:21;101347.81;;;-3.65;100.00
54512;BME280;40419;47.438;19.026;2022-12-18T02:20:52;101344.78;;;-3.57;100.00
54512;BME280;40419;47.438;19.026;2022-12-18T02:28:46;101352.34;;;-4.05;100.00
54512;BME280;40419;47.438;19.026;2022-12-18T02:31:21;101364.81;;;-3.88;100.00
54512;BME280;40419;47.438;19.026;2022-12-18T02:33:51;101370.81;;;-3.84;100.00
54512;BME280;40419;47.438;19.026;2022-12-18T02:36:19;101364.94;;;-3.91;100.00
54512;BME280;40419;47.438;19.026;2022-12-18T02:38:51;101371.28;;;-3.76;100.00
54512;BME280;40419;47.438;19.026;2022-12-18T02:41:21;101379.88;;;-3.71;100.00
54512;BME280;40419;47.438;19.026;2022-12-18T02:44:08;101374.44;;;-3.68;100.00
54512;BME280;40419;47.438;19.026;2022-12-18T02:46:39;101372.53;;;-4.02;100.00
54512;BME280;40419;47.438;19.026;2022-12-18T03:03:16;101386.75;;;-4.05;100.00
54512;BME280;40419;47.438;19.026;2022-12-18T03:05:52;101406.13;;;-3.85;100.00
54512;BME280;40419;47.438;19.026;2022-12-18T03:08:25;101401.44;;;-3.79;100.00
54512;BME280;40419;47.438;19.026;2022-12-18T03:11:01;101406.97;;;-3.66;100.00
54512;BME280;40419;47.438;19.026;2022-12-18T03:13:32;101403.47;;;-3.66;100.00
54512;BME280;40419;47.438;19.026;2022-12-18T03:15:59;101400.75;;;-3.65;100.00
54512;BME280;40419;47.438;19.026;2022-12-18T03:21:00;101408.97;;;-3.52;100.00
54512;BME280;40419;47.438;19.026;2022-12-18T03:23:33;101412.44;;;-3.88;100.00
54512;BME280;40419;47.438;19.026;2022-12-18T03:26:07;101421.94;;;-3.84;100.00
54512;BME280;40419;47.438;19.026;2022-12-18T03:28:47;101422.75;;;-3.82;100.00
54512;BME280;40419;47.438;19.026;2022-12-18T03:31:21;101428.31;;;-3.69;100.00
54512;BME280;40419;47.438;19.026;2022-12-18T03:34:04;101429.16;;;-3.68;100.00
54512;BME280;40419;47.438;19.026;2022-12-18T03:36:40;101437.41;;;-3.94;100.00
54512;BME280;40419;47.438;19.026;2022-12-18T03:39:08;101440.53;;;-3.85;100.00
54512;BME280;40419;47.438;19.026;2022-12-18T03:41:47;101441.59;;;-3.89;100.00
54512;BME280;40419;47.438;19.026;2022-12-18T03:47:29;101456.50;;;-3.87;100.00
54512;BME280;40419;47.438;19.026;2022-12-18T03:50:23;101459.91;;;-4.04;100.00
54512;BME280;40419;47.438;19.026;2022-12-18T03:53:00;101460.56;;;-3.99;100.00
54512;BME280;40419;47.438;19.026;2022-12-18T03:55:34;101449.06;;;-3.79;100.00
54512;BME280;40419;47.438;19.026;2022-12-18T03:58:04;101457.28;;;-4.04;100.00
54512;BME280;40419;47.438;19.026;2022-12-18T04:00:44;101452.25;;;-4.10;100.00
54512;BME280;40419;47.438;19.026;2022-12-18T04:03:16;101455.19;;;-4.16;100.00
54512;BME280;40419;47.438;19.026;2022-12-18T04:05:48;101458.78;;;-3.98;100.00
54512;BME280;40419;47.438;19.026;2022-12-18T04:08:18;101462.00;;;-3.92;100.00
54512;BME280;40419;47.438;19.026;2022-12-18T04:10:52;101473.78;;;-3.99;100.00
54512;BME280;40419;47.438;19.026;2022-12-18T04:13:32;101453.34;;;-3.95;100.00
54512;BME280;40419;47.438;19.026;2022-12-18T04:16:00;101463.00;;;-3.94;100.00
54512;BME280;40419;47.438;19.026;2022-12-18T04:18:27;101456.78;;;-3.93;100.00
54512;BME280;40419;47.438;19.026;2022-12-18T04:20:55;101454.00;;;-3.90;100.00
54512;BME280;40419;47.438;19.026;2022-12-18T04:23:26;101454.59;;;-3.83;100.00
54512;BME280;40419;47.438;19.026;2022-12-18T04:25:58;101465.03;;;-3.80;100.00
54512;BME280;40419;47.438;19.026;2022-12-18T04:28:46;101457.56;;;-3.72;100.00
54512;BME280;40419;47.438;19.026;2022-12-18T04:31:12;101467.53;;;-3.77;100.00
54512;BME280;40419;47.438;19.026;2022-12-18T04:33:38;101479.19;;;-3.81;100.00
54512;BME280;40419;47.438;19.026;2022-12-18T04:36:05;101477.16;;;-3.95;100.00
54512;BME280;40419;47.438;19.026;2022-12-18T04:38:34;101491.75;;;-4.26;100.00
54512;BME280;40419;47.438;19.026;2022-12-18T04:41:06;101491.03;;;-4.30;100.00
54512;BME280;40419;47.438;19.026;2022-12-18T04:43:33;101492.88;;;-4.11;100.00
54512;BME280;40419;47.438;19.026;2022-12-18T04:46:08;101504.19;;;-4.07;100.00
54512;BME280;40419;47.438;19.026;2022-12-18T04:48:37;101503.28;;;-4.27;100.00
54512;BME280;40419;47.438;19.026;2022-12-18T04:51:03;101516.16;;;-4.19;100.00
54512;BME280;40419;47.438;19.026;2022-12-18T04:53:32;101515.22;;;-4.18;100.00
54512;BME280;40419;47.438;19.026;2022-12-18T04:56:08;101516.84;;;-4.35;100.00
54512;BME280;40419;47.438;19.026;2022-12-18T04:58:37;101520.97;;;-4.29;100.00
54512;BME280;40419;47.438;19.026;2022-12-18T05:01:06;101510.66;;;-4.35;100.00
54512;BME280;40419;47.438;19.026;2022-12-18T05:03:38;101514.03;;;-4.11;100.00
54512;BME280;40419;47.438;19.026;2022-12-18T05:06:07;101525.06;;;-4.42;100.00
54512;BME280;40419;47.438;19.026;2022-12-18T05:08:35;101530.84;;;-4.33;100.00
54512;BME280;40419;47.438;19.026;2022-12-18T05:11:06;101524.63;;;-4.32;100.00
54512;BME280;40419;47.438;19.026;2022-12-18T05:13:39;101529.25;;;-4.16;100.00
54512;BME280;40419;47.438;19.026;2022-12-18T05:16:05;101533.28;;;-4.49;100.00
54512;BME280;40419;47.438;19.026;2022-12-18T05:18:31;101523.22;;;-4.61;100.00
54512;BME280;40419;47.438;19.026;2022-12-18T05:21:02;101526.81;;;-4.41;100.00
54512;BME280;40419;47.438;19.026;2022-12-18T05:23:27;101521.59;;;-4.22;100.00
54512;BME280;40419;47.438;19.026;2022-12-18T05:26:03;101530.56;;;-4.27;100.00
54512;BME280;40419;47.438;19.026;2022-12-18T05:28:30;101540.75;;;-4.17;100.00
54512;BME280;40419;47.438;19.026;2022-12-18T05:31:05;101537.72;;;-4.29;100.00
54512;BME280;40419;47.438;19.026;2022-12-18T05:33:34;101541.03;;;-4.23;100.00
54512;BME280;40419;47.438;19.026;2022-12-18T05:36:07;101545.34;;;-4.21;100.00
54512;BME280;40419;47.438;19.026;2022-12-18T05:38:38;101553.41;;;-4.24;100.00
54512;BME280;40419;47.438;19.026;2022-12-18T05:41:08;101556.97;;;-4.25;100.00
54512;BME280;40419;47.438;19.026;2022-12-18T05:43:37;101556.91;;;-4.23;100.00
54512;BME280;40419;47.438;19.026;2022-12-18T05:46:11;101555.38;;;-4.50;100.00
54512;BME280;40419;47.438;19.026;2022-12-18T05:48:39;101570.53;;;-4.55;100.00
54512;BME280;40419;47.438;19.026;2022-12-18T05:51:09;101564.91;;;-4.68;100.00
54512;BME280;40419;47.438;19.026;2022-12-18T05:53:38;101574.69;;;-4.70;100.00
54512;BME280;40419;47.438;19.026;2022-12-18T05:56:12;101559.69;;;-4.91;100.00
54512;BME280;40419;47.438;19.026;2022-12-18T05:58:41;101571.97;;;-4.68;100.00
54512;BME280;40419;47.438;19.026;2022-12-18T06:01:12;101576.88;;;-4.59;100.00
54512;BME280;40419;47.438;19.026;2022-12-18T06:03:43;101570.00;;;-4.63;100.00
54512;BME280;40419;47.438;19.026;2022-12-18T06:06:17;101575.31;;;-4.63;100.00
54512;BME280;40419;47.438;19.026;2022-12-18T06:08:46;101584.81;;;-5.25;100.00
54512;BME280;40419;47.438;19.026;2022-12-18T06:11:18;101586.78;;;-5.08;100.00
54512;BME280;40419;47.438;19.026;2022-12-18T06:13:49;101577.03;;;-4.84;100.00
54512;BME280;40419;47.438;19.026;2022-12-18T06:16:14;101577.94;;;-4.85;100.00
54512;BME280;40419;47.438;19.026;2022-12-18T06:18:42;101590.09;;;-5.03;100.00
54512;BME280;40419;47.438;19.026;2022-12-18T06:21:07;101588.69;;;-4.90;100.00
54512;BME280;40419;47.438;19.026;2022-12-18T06:23:33;101583.94;;;-4.80;100.00
54512;BME280;40419;47.438;19.026;2022-12-18T06:26:03;101593.06;;;-4.89;100.00
54512;BME280;40419;47.438;19.026;2022-12-18T06:28:31;101606.13;;;-5.31;100.00
54512;BME280;40419;47.438;19.026;2022-12-18T06:30:58;101610.72;;;-5.60;100.00
54512;BME280;40419;47.438;19.026;2022-12-18T06:33:26;101625.50;;;-5.31;100.00
54512;BME280;40419;47.438;19.026;2022-12-18T06:35:52;101622.97;;;-5.34;100.00
54512;BME280;40419;47.438;19.026;2022-12-18T06:38:17;101624.25;;;-5.44;100.00
54512;BME280;40419;47.438;19.026;2022-12-18T06:40:45;101623.72;;;-5.30;100.00
54512;BME280;40419;47.438;19.026;2022-12-18T06:43:10;101628.59;;;-5.20;100.00
54512;BME280;40419;47.438;19.026;2022-12-18T06:45:38;101633.00;;;-4.96;100.00
54512;BME280;40419;47.438;19.026;2022-12-18T06:48:04;101628.41;;;-4.91;100.00
54512;BME280;40419;47.438;19.026;2022-12-18T06:50:29;101629.94;;;-4.86;100.00
54512;BME280;40419;47.438;19.026;2022-12-18T06:52:55;101629.72;;;-5.03;100.00
54512;BME280;40419;47.438;19.026;2022-12-18T06:55:20;101645.44;;;-5.22;100.00
54512;BME280;40419;47.438;19.026;2022-12-18T06:57:48;101648.63;;;-5.14;100.00
54512;BME280;40419;47.438;19.026;2022-12-18T07:00:14;101654.94;;;-4.94;100.00
54512;BME280;40419;47.438;19.026;2022-12-18T07:02:39;101660.75;;;-5.32;100.00
54512;BME280;40419;47.438;19.026;2022-12-18T07:05:09;101665.75;;;-5.01;100.00
54512;BME280;40419;47.438;19.026;2022-12-18T07:07:36;101661.06;;;-4.94;100.00
54512;BME280;40419;47.438;19.026;2022-12-18T07:10:01;101664.22;;;-5.31;100.00
54512;BME280;40419;47.438;19.026;2022-12-18T07:12:29;101666.94;;;-5.33;100.00
54512;BME280;40419;47.438;19.026;2022-12-18T07:14:57;101674.03;;;-5.10;100.00
54512;BME280;40419;47.438;19.026;2022-12-18T07:17:25;101674.94;;;-4.87;100.00
54512;BME280;40419;47.438;19.026;2022-12-18T07:19:55;101674.38;;;-4.73;100.00
54512;BME280;40419;47.438;19.026;2022-12-18T07:22:21;101683.69;;;-4.63;100.00
54512;BME280;40419;47.438;19.026;2022-12-18T07:24:51;101694.25;;;-4.41;100.00
54512;BME280;40419;47.438;19.026;2022-12-18T07:27:17;101688.16;;;-4.43;100.00
54512;BME280;40419;47.438;19.026;2022-12-18T07:29:43;101695.31;;;-4.45;100.00
54512;BME280;40419;47.438;19.026;2022-12-18T07:32:11;101702.25;;;-4.65;100.00
54512;BME280;40419;47.438;19.026;2022-12-18T07:34:42;101712.59;;;-4.58;100.00
54512;BME280;40419;47.438;19.026;2022-12-18T07:37:08;101712.63;;;-4.38;100.00
54512;BME280;40419;47.438;19.026;2022-12-18T07:39:33;101713.47;;;-4.36;100.00
54512;BME280;40419;47.438;19.026;2022-12-18T07:42:01;101716.66;;;-4.28;100.00
54512;BME280;40419;47.438;19.026;2022-12-18T07:44:47;101722.31;;;-4.37;100.00
54512;BME280;40419;47.438;19.026;2022-12-18T07:47:15;101722.25;;;-4.13;100.00
54512;BME280;40419;47.438;19.026;2022-12-18T07:49:43;101723.28;;;-4.17;100.00
54512;BME280;40419;47.438;19.026;2022-12-18T07:52:11;101729.16;;;-4.09;100.00
54512;BME280;40419;47.438;19.026;2022-12-18T07:54:37;101739.03;;;-4.14;100.00
54512;BME280;40419;47.438;19.026;2022-12-18T07:57:06;101736.94;;;-4.28;100.00
54512;BME280;40419;47.438;19.026;2022-12-18T07:59:34;101747.09;;;-4.17;100.00
54512;BME280;40419;47.438;19.026;2022-12-18T08:02:00;101764.50;;;-4.34;100.00
54512;BME280;40419;47.438;19.026;2022-12-18T08:04:25;101756.00;;;-4.20;100.00
54512;BME280;40419;47.438;19.026;2022-12-18T08:06:51;101763.31;;;-3.82;100.00
54512;BME280;40419;47.438;19.026;2022-12-18T08:09:17;101765.06;;;-3.81;100.00
54512;BME280;40419;47.438;19.026;2022-12-18T08:11:45;101762.78;;;-3.90;100.00
54512;BME280;40419;47.438;19.026;2022-12-18T08:14:13;101763.31;;;-3.82;100.00
54512;BME280;40419;47.438;19.026;2022-12-18T08:16:43;101771.22;;;-4.03;100.00
54512;BME280;40419;47.438;19.026;2022-12-18T08:19:13;101768.75;;;-3.85;100.00
54512;BME280;40419;47.438;19.026;2022-12-18T08:21:39;101766.28;;;-3.90;100.00
54512;BME280;40419;47.438;19.026;2022-12-18T08:24:08;101760.34;;;-3.75;100.00
54512;BME280;40419;47.438;19.026;2022-12-18T08:26:38;101772.41;;;-3.67;100.00
54512;BME280;40419;47.438;19.026;2022-12-18T08:29:04;101765.31;;;-3.67;100.00
54512;BME280;40419;47.438;19.026;2022-12-18T08:31:29;101776.84;;;-3.68;100.00
54512;BME280;40419;47.438;19.026;2022-12-18T08:33:58;101785.13;;;-3.76;100.00
54512;BME280;40419;47.438;19.026;2022-12-18T08:36:26;101779.50;;;-3.47;100.00
54512;BME280;40419;47.438;19.026;2022-12-18T08:38:51;101777.47;;;-3.41;100.00
54512;BME280;40419;47.438;19.026;2022-12-18T08:41:17;101781.25;;;-3.46;100.00
54512;BME280;40419;47.438;19.026;2022-12-18T08:43:45;101783.50;;;-3.37;100.00
54512;BME280;40419;47.438;19.026;2022-12-18T08:46:38;101788.13;;;-3.42;100.00
54512;BME280;40419;47.438;19.026;2022-12-18T08:49:05;101792.13;;;-3.32;100.00
54512;BME280;40419;47.438;19.026;2022-12-18T08:51:34;101779.47;;;-3.25;100.00
54512;BME280;40419;47.438;19.026;2022-12-18T08:54:02;101786.50;;;-3.24;100.00
54512;BME280;40419;47.438;19.026;2022-12-18T08:56:30;101787.34;;;-3.24;100.00
54512;BME280;40419;47.438;19.026;2022-12-18T08:58:59;101792.16;;;-3.13;100.00
54512;BME280;40419;47.438;19.026;2022-12-18T09:01:24;101800.53;;;-3.01;100.00
54512;BME280;40419;47.438;19.026;2022-12-18T09:03:50;101806.75;;;-3.03;100.00
54512;BME280;40419;47.438;19.026;2022-12-18T09:06:17;101812.91;;;-3.02;100.00
54512;BME280;40419;47.438;19.026;2022-12-18T09:08:47;101804.56;;;-2.93;100.00
54512;BME280;40419;47.438;19.026;2022-12-18T09:11:25;101818.41;;;-2.86;100.00
54512;BME280;40419;47.438;19.026;2022-12-18T09:13:53;101814.75;;;-2.83;100.00
54512;BME280;40419;47.438;19.026;2022-12-18T09:16:20;101822.72;;;-2.83;100.00
54512;BME280;40419;47.438;19.026;2022-12-18T09:18:48;101819.25;;;-2.86;100.00
54512;BME280;40419;47.438;19.026;2022-12-18T09:21:17;101823.00;;;-2.71;100.00
54512;BME280;40419;47.438;19.026;2022-12-18T09:23:50;101810.75;;;-2.73;100.00
54512;BME280;40419;47.438;19.026;2022-12-18T09:26:20;101814.97;;;-2.69;100.00
54512;BME280;40419;47.438;19.026;2022-12-18T09:28:46;101808.13;;;-2.54;100.00
54512;BME280;40419;47.438;19.026;2022-12-18T09:31:15;101805.69;;;-2.59;100.00
54512;BME280;40419;47.438;19.026;2022-12-18T09:33:43;101812.72;;;-2.58;100.00
54512;BME280;40419;47.438;19.026;2022-12-18T09:36:13;101814.09;;;-2.49;100.00
54512;BME280;40419;47.438;19.026;2022-12-18T09:38:39;101805.47;;;-2.54;100.00
54512;BME280;40419;47.438;19.026;2022-12-18T09:41:41;101810.28;;;-2.43;100.00
54512;BME280;40419;47.438;19.026;2022-12-18T09:49:41;101815.16;;;-2.34;100.00
54512;BME280;40419;47.438;19.026;2022-12-18T09:54:39;101813.50;;;-2.18;100.00
54512;BME280;40419;47.438;19.026;2022-12-18T09:57:12;101815.84;;;-2.11;100.00
54512;BME280;40419;47.438;19.026;2022-12-18T09:59:40;101812.28;;;-2.10;100.00
54512;BME280;40419;47.438;19.026;2022-12-18T10:02:22;101808.69;;;-2.09;100.00
54512;BME280;40419;47.438;19.026;2022-12-18T10:05:24;101805.97;;;-2.08;100.00
54512;BME280;40419;47.438;19.026;2022-12-18T10:10:23;101809.25;;;-2.03;100.00
54512;BME280;40419;47.438;19.026;2022-12-18T10:16:19;101792.16;;;-1.78;100.00
54512;BME280;40419;47.438;19.026;2022-12-18T10:21:18;101803.47;;;-1.74;100.00
54512;BME280;40419;47.438;19.026;2022-12-18T10:26:22;101799.00;;;-1.74;100.00
54512;BME280;40419;47.438;19.026;2022-12-18T10:28:48;101805.13;;;-1.72;100.00
54512;BME280;40419;47.438;19.026;2022-12-18T10:31:19;101794.59;;;-1.73;100.00
54512;BME280;40419;47.438;19.026;2022-12-18T10:33:47;101792.69;;;-1.71;100.00
54512;BME280;40419;47.438;19.026;2022-12-18T10:36:13;101792.53;;;-1.68;100.00
54512;BME280;40419;47.438;19.026;2022-12-18T10:38:42;101797.63;;;-1.64;100.00
54512;BME280;40419;47.438;19.026;2022-12-18T10:44:16;101796.78;;;-1.64;100.00
54512;BME280;40419;47.438;19.026;2022-12-18T10:46:48;101796.38;;;-1.56;100.00
54512;BME280;40419;47.438;19.026;2022-12-18T10:49:28;101796.69;;;-1.63;100.00
54512;BME280;40419;47.438;19.026;2022-12-18T10:52:21;101793.66;;;-1.55;100.00
54512;BME280;40419;47.438;19.026;2022-12-18T10:55:02;101791.63;;;-1.50;100.00
54512;BME280;40419;47.438;19.026;2022-12-18T10:59:57;101792.72;;;-1.36;100.00
54512;BME280;40419;47.438;19.026;2022-12-18T11:02:34;101800.75;;;-1.38;100.00
54512;BME280;40419;47.438;19.026;2022-12-18T11:05:00;101793.50;;;-1.34;100.00
54512;BME280;40419;47.438;19.026;2022-12-18T11:07:49;101793.19;;;-1.28;100.00
54512;BME280;40419;47.438;19.026;2022-12-18T11:10:21;101780.16;;;-1.33;100.00
54512;BME280;40419;47.438;19.026;2022-12-18T11:12:47;101785.22;;;-1.28;100.00
54512;BME280;40419;47.438;19.026;2022-12-18T11:15:28;101785.91;;;-1.25;100.00
54512;BME280;40419;47.438;19.026;2022-12-18T11:17:55;101783.34;;;-1.26;99.32
54512;BME280;40419;47.438;19.026;2022-12-18T11:20:33;101787.47;;;-1.20;100.00
54512;BME280;40419;47.438;19.026;2022-12-18T11:23:10;101776.53;;;-1.14;100.00
54512;BME280;40419;47.438;19.026;2022-12-18T11:25:37;101777.22;;;-1.11;97.62
54512;BME280;40419;47.438;19.026;2022-12-18T11:28:35;101782.28;;;-0.88;94.13
54512;BME280;40419;47.438;19.026;2022-12-18T11:33:56;101782.63;;;-0.79;98.84
54512;BME280;40419;47.438;19.026;2022-12-18T11:36:31;101776.22;;;-0.75;100.00
54512;BME280;40419;47.438;19.026;2022-12-18T11:39:09;101778.19;;;-0.62;98.03
54512;BME280;40419;47.438;19.026;2022-12-18T11:41:53;101775.63;;;-0.64;99.34
54512;BME280;40419;47.438;19.026;2022-12-18T11:44:52;101766.25;;;-0.71;100.00
54512;BME280;40419;47.438;19.026;2022-12-18T11:49:56;101763.44;;;-0.68;100.00
54512;BME280;40419;47.438;19.026;2022-12-18T11:52:36;101765.31;;;-0.70;100.00
54512;BME280;40419;47.438;19.026;2022-12-18T11:55:12;101761.47;;;-0.64;100.00
54512;BME280;40419;47.438;19.026;2022-12-18T12:00:21;101768.94;;;-0.55;98.29
54512;BME280;40419;47.438;19.026;2022-12-18T12:11:16;101755.75;;;-0.41;96.26
54512;BME280;40419;47.438;19.026;2022-12-18T12:40:58;101761.22;;;-0.28;96.91
54512;BME280;40419;47.438;19.026;2022-12-18T12:43:44;101758.81;;;-0.32;97.72
54512;BME280;40419;47.438;19.026;2022-12-18T12:46:18;101764.91;;;-0.30;97.48
54512;BME280;40419;47.438;19.026;2022-12-18T12:49:02;101780.03;;;-0.31;96.56
54512;BME280;40419;47.438;19.026;2022-12-18T12:51:35;101779.53;;;-0.22;96.60
54512;BME280;40419;47.438;19.026;2022-12-18T12:54:13;101783.38;;;-0.27;95.87
54512;BME280;40419;47.438;19.026;2022-12-18T12:56:50;101787.84;;;-0.28;94.48
54512;BME280;40419;47.438;19.026;2022-12-18T13:02:00;101791.19;;;-0.24;94.24
54512;BME280;40419;47.438;19.026;2022-12-18T13:04:43;101793.19;;;-0.44;95.29
54512;BME280;40419;47.438;19.026;2022-12-18T13:07:14;101787.06;;;-0.46;95.44
54512;BME280;40419;47.438;19.026;2022-12-18T13:10:36;101784.84;;;-0.38;95.84
54512;BME280;40419;47.438;19.026;2022-12-18T13:13:02;101800.72;;;-0.52;99.35
54512;BME280;40419;47.438;19.026;2022-12-18T13:15:50;101799.94;;;-0.54;99.76
54512;BME280;40419;47.438;19.026;2022-12-18T13:18:28;101798.81;;;-0.50;99.32
54512;BME280;40419;47.438;19.026;2022-12-18T13:34:20;101814.47;;;-0.28;96.48
54512;BME280;40419;47.438;19.026;2022-12-18T13:36:47;101820.72;;;-0.29;95.46
54512;BME280;40419;47.438;19.026;2022-12-18T13:41:50;101813.97;;;-0.19;94.66
54512;BME280;40419;47.438;19.026;2022-12-18T13:46:55;101816.34;;;-0.46;98.68
54512;BME280;40419;47.438;19.026;2022-12-18T13:49:28;101826.97;;;-0.46;99.49
54512;BME280;40419;47.438;19.026;2022-12-18T13:51:56;101830.31;;;-0.58;100.00
54512;BME280;40419;47.438;19.026;2022-12-18T13:54:33;101830.91;;;-0.53;99.17
54512;BME280;40419;47.438;19.026;2022-12-18T13:57:03;101827.47;;;-0.55;99.24
54512;BME280;40419;47.438;19.026;2022-12-18T13:59:39;101822.34;;;-0.58;99.22
54512;BME280;40419;47.438;19.026;2022-12-18T14:02:13;101835.47;;;-0.55;98.66
54512;BME280;40419;47.438;19.026;2022-12-18T14:04:47;101834.38;;;-0.51;98.42
54512;BME280;40419;47.438;19.026;2022-12-18T14:07:16;101832.63;;;-0.52;98.58
54512;BME280;40419;47.438;19.026;2022-12-18T14:09:50;101844.47;;;-0.58;99.46
54512;BME280;40419;47.438;19.026;2022-12-18T14:18:31;101837.06;;;-0.68;100.00
54512;BME280;40419;47.438;19.026;2022-12-18T14:21:02;101836.78;;;-0.80;100.00
54512;BME280;40419;47.438;19.026;2022-12-18T14:23:41;101836.00;;;-0.82;100.00
54512;BME280;40419;47.438;19.026;2022-12-18T14:26:26;101838.88;;;-0.86;100.00
54512;BME280;40419;47.438;19.026;2022-12-18T14:28:58;101831.31;;;-0.94;100.00
54512;BME280;40419;47.438;19.026;2022-12-18T14:31:31;101835.22;;;-1.01;100.00
54512;BME280;40419;47.438;19.026;2022-12-18T14:34:01;101843.91;;;-1.15;100.00
54512;BME280;40419;47.438;19.026;2022-12-18T14:36:28;101850.41;;;-1.21;100.00
54512;BME280;40419;47.438;19.026;2022-12-18T14:38:56;101835.41;;;-1.22;100.00
54512;BME280;40419;47.438;19.026;2022-12-18T14:41:25;101848.13;;;-1.29;100.00
54512;BME280;40419;47.438;19.026;2022-12-18T14:44:05;101853.59;;;-1.32;100.00
54512;BME280;40419;47.438;19.026;2022-12-18T14:46:41;101855.56;;;-1.35;100.00
54512;BME280;40419;47.438;19.026;2022-12-18T14:51:52;101854.00;;;-1.39;100.00
54512;BME280;40419;47.438;19.026;2022-12-18T14:54:24;101872.44;;;-1.54;100.00
54512;BME280;40419;47.438;19.026;2022-12-18T14:59:28;101878.59;;;-1.53;100.00
54512;BME280;40419;47.438;19.026;2022-12-18T15:02:08;101882.69;;;-1.65;100.00
54512;BME280;40419;47.438;19.026;2022-12-18T15:04:40;101883.63;;;-1.66;100.00
54512;BME280;40419;47.438;19.026;2022-12-18T15:09:59;101889.91;;;-1.67;100.00
54512;BME280;40419;47.438;19.026;2022-12-18T15:12:33;101892.47;;;-1.66;100.00
54512;BME280;40419;47.438;19.026;2022-12-18T15:14:59;101896.22;;;-1.70;100.00
54512;BME280;40419;47.438;19.026;2022-12-18T15:17:27;101900.09;;;-1.77;100.00